Time;durP1;ratioP1;P1;durP2;ratioP2;P2;SDS_P1;SDS_P2;PMS_P1;PMS_P2;Temp;Humidity;BMP_temperature;BMP_pressure;BME280_temperature;BME280_humidity;BME280_pressure;Samples;Min_cycle;Max_cycle;Signal;HPM_P1;HPM_P2
2023/03/12 00:00:24;;;;;;;13.50;6.80;;;;;;;2.35;72.90;99116.43;681886;1264;139042;-84
2023/03/12 00:15:48;;;;;;;13.70;7.10;;;;;;;2.42;73.70;99112.11;682069;1264;139113;-85
2023/03/12 00:30:52;;;;;;;17.30;6.70;;;;;;;2.61;75.04;99101.09;682076;1263;138651;-82
2023/03/12 00:45:58;;;;;;;12.20;6.80;;;;;;;2.70;75.84;99087.10;681900;1265;139988;-85
2023/03/12 01:01:03;;;;;;;13.40;6.70;;;;;;;2.82;77.03;99075.52;682082;1265;138775;-82
2023/03/12 01:16:07;;;;;;;10.40;5.50;;;;;;;2.97;77.42;99071.44;682299;1266;138771;-82
2023/03/12 01:31:13;;;;;;;11.10;5.30;;;;;;;2.97;77.64;99054.66;681977;1265;138612;-83
2023/03/12 01:46:38;;;;;;;8.40;4.90;;;;;;;3.12;76.91;99040.62;681998;1265;138643;-83
2023/03/12 02:01:45;;;;;;;9.30;5.40;;;;;;;3.08;77.01;99042.33;682402;1263;138216;-83
2023/03/12 02:16:48;;;;;;;10.30;5.70;;;;;;;3.19;77.05;99037.29;682024;1265;138068;-84
2023/03/12 02:31:55;;;;;;;11.40;4.80;;;;;;;3.21;77.58;99051.17;682297;1263;138263;-83
2023/03/12 02:47:00;;;;;;;12.10;4.80;;;;;;;3.29;77.36;99062.48;682351;1264;138236;-86
2023/03/12 03:02:05;;;;;;;6.40;4.30;;;;;;;3.30;77.36;99069.52;682344;1265;138290;-84
2023/03/12 03:17:09;;;;;;;7.90;4.70;;;;;;;3.24;77.83;99082.18;682067;1266;138389;-84
2023/03/12 03:32:13;;;;;;;7.90;5.10;;;;;;;3.15;78.18;99109.33;682327;1264;139076;-84
2023/03/12 03:47:16;;;;;;;8.90;3.60;;;;;;;2.95;78.10;99103.23;682092;1264;138154;-84
2023/03/12 04:02:21;;;;;;;5.70;3.60;;;;;;;2.98;76.63;99108.28;682210;1261;138582;-85
2023/03/12 04:17:24;;;;;;;4.50;3.60;;;;;;;2.97;76.44;99125.18;682104;1265;138608;-84
2023/03/12 04:32:28;;;;;;;9.70;6.50;;;;;;;2.93;77.73;99153.97;682218;1264;139228;-84
2023/03/12 04:47:32;;;;;;;6.60;3.00;;;;;;;3.08;77.94;99165.27;682234;1262;138457;-84
2023/03/12 05:02:36;;;;;;;3.70;2.70;;;;;;;2.98;78.81;99178.98;682313;1264;138265;-84
2023/03/12 05:17:40;;;;;;;4.40;2.40;;;;;;;2.84;76.73;99187.09;682174;1260;139727;-82
2023/03/12 05:32:44;;;;;;;14.70;4.30;;;;;;;2.70;75.31;99205.68;682155;1264;138521;-83
2023/03/12 05:47:47;;;;;;;13.20;3.90;;;;;;;2.63;75.54;99216.73;682168;1263;138927;-83
2023/03/12 06:02:51;;;;;;;3.40;2.30;;;;;;;2.67;75.59;99244.58;682215;1264;139111;-83
2023/03/12 06:17:54;;;;;;;24.40;9.90;;;;;;;2.76;73.61;99250.32;682253;1263;138720;-82
2023/03/12 06:32:58;;;;;;;12.30;4.80;;;;;;;2.85;71.51;99273.91;682151;1264;138823;-83
2023/03/12 06:48:01;;;;;;;7.20;1.90;;;;;;;3.18;70.94;99300.86;682374;1262;138934;-82
2023/03/12 07:03:05;;;;;;;11.30;3.10;;;;;;;3.25;69.72;99319.17;682400;1260;138327;-86
2023/03/12 07:18:10;;;;;;;7.60;3.60;;;;;;;3.68;67.76;99334.03;682328;1260;138508;-83
2023/03/12 07:33:14;;;;;;;5.40;2.80;;;;;;;4.01;65.52;99340.45;682254;1260;139249;-86
2023/03/12 07:48:18;;;;;;;9.50;3.90;;;;;;;4.57;63.04;99353.45;682328;1263;138360;-84
2023/03/12 08:03:22;;;;;;;6.00;3.00;;;;;;;4.50;62.35;99371.32;682333;1264;138037;-84
2023/03/12 08:18:26;;;;;;;21.20;10.80;;;;;;;4.52;62.28;99393.30;682242;1260;138857;-82
2023/03/12 08:33:30;;;;;;;15.40;4.20;;;;;;;4.97;61.18;99404.21;682089;1261;139032;-87
2023/03/12 08:48:33;;;;;;;15.60;6.80;;;;;;;5.10;61.38;99429.17;681902;1264;138981;-90
2023/03/12 09:03:37;;;;;;;25.10;12.00;;;;;;;5.66;59.44;99444.89;682140;1262;139267;-86
2023/03/12 09:18:40;;;;;;;33.60;16.60;;;;;;;5.71;58.05;99459.11;681959;1263;138469;-86
2023/03/12 09:33:44;;;;;;;24.80;10.40;;;;;;;5.90;55.57;99469.01;681982;1259;138126;-85
2023/03/12 09:48:50;;;;;;;49.80;22.40;;;;;;;6.43;54.83;99485.52;681898;1262;138092;-85
2023/03/12 10:04:18;;;;;;;76.50;26.60;;;;;;;6.81;53.98;99508.22;682040;1265;139935;-87
2023/03/12 10:19:41;;;;;;;87.10;36.60;;;;;;;7.13;52.37;99529.17;681882;1261;137905;-85
2023/03/12 10:34:46;;;;;;;30.10;14.80;;;;;;;7.41;50.67;99522.13;682016;1264;138515;-84
2023/03/12 10:49:50;;;;;;;24.80;11.30;;;;;;;7.75;48.23;99541.22;682077;1264;137818;-85
2023/03/12 11:04:53;;;;;;;25.70;11.60;;;;;;;7.29;47.99;99567.31;681955;1264;137883;-86
2023/03/12 11:19:56;;;;;;;10.50;4.60;;;;;;;7.62;48.99;99582.96;681936;1260;137781;-85
2023/03/12 11:35:00;;;;;;;47.60;20.30;;;;;;;8.36;46.68;99590.73;682046;1263;138005;-83
2023/03/12 11:50:19;;;;;;;14.70;8.00;;;;;;;7.94;45.11;99613.00;682014;1264;138302;-82
2023/03/12 12:06:02;;;;;;;12.20;7.30;;;;;;;8.14;43.47;99613.18;681903;1264;138097;-81
2023/03/12 12:21:23;;;;;;;18.80;9.20;;;;;;;7.94;42.44;99619.99;682012;1260;137785;-81
2023/03/12 12:36:30;;;;;;;16.00;6.00;;;;;;;8.10;42.71;99640.20;681985;1264;138031;-82
2023/03/12 12:51:48;;;;;;;29.20;11.40;;;;;;;8.76;41.57;99650.11;681792;1259;138077;-82
2023/03/12 13:06:54;;;;;;;265.90;121.20;;;;;;;9.66;40.95;99647.23;681940;1265;138308;-82
2023/03/12 13:22:21;;;;;;;22.70;8.90;;;;;;;10.47;39.51;99647.45;682058;1264;138391;-82
2023/03/12 13:37:47;;;;;;;56.70;16.30;;;;;;;9.42;39.78;99664.25;682212;1259;137893;-81
2023/03/12 13:53:01;;;;;;;153.30;62.50;;;;;;;9.02;41.90;99681.61;681996;1265;138283;-83
2023/03/12 14:08:25;;;;;;;129.90;71.00;;;;;;;15.16;38.65;99680.91;682134;1265;137944;-81
2023/03/12 14:23:35;;;;;;;8.80;5.70;;;;;;;20.18;35.22;99686.55;682225;1264;138747;-81
2023/03/12 14:38:43;;;;;;;19.80;8.00;;;;;;;18.86;32.97;99695.38;682338;1263;137957;-84
2023/03/12 14:53:46;;;;;;;34.80;17.60;;;;;;;13.13;35.33;99702.04;682067;1265;138221;-84
2023/03/12 15:08:50;;;;;;;31.30;13.50;;;;;;;9.10;39.37;99700.91;682257;1262;138410;-82
2023/03/12 15:23:53;;;;;;;22.90;7.30;;;;;;;9.92;41.31;99703.77;682220;1264;137606;-82
2023/03/12 15:39:19;;;;;;;31.20;13.20;;;;;;;8.25;43.43;99708.73;681933;1265;153609;-81
2023/03/12 15:54:26;;;;;;;112.90;49.50;;;;;;;7.29;45.42;99710.14;682245;1264;136997;-82
2023/03/12 16:09:32;;;;;;;21.20;7.90;;;;;;;6.78;46.02;99720.20;682135;1264;138395;-81
2023/03/12 16:24:35;;;;;;;15.30;6.60;;;;;;;6.39;47.96;99728.81;682280;1262;138735;-82
2023/03/12 16:39:39;;;;;;;40.70;14.20;;;;;;;6.15;49.38;99733.48;682127;1265;138931;-81
2023/03/12 16:54:42;;;;;;;24.80;7.90;;;;;;;5.97;51.01;99748.21;682082;1265;138257;-81
2023/03/12 17:09:46;;;;;;;147.40;58.00;;;;;;;5.80;52.16;99762.55;681871;1264;137908;-81
2023/03/12 17:24:49;;;;;;;147.50;53.40;;;;;;;5.71;52.46;99777.42;681899;1265;138099;-81
2023/03/12 17:39:52;;;;;;;31.60;10.80;;;;;;;5.55;52.46;99786.63;681837;1265;138444;-80
2023/03/12 17:54:56;;;;;;;99.00;26.00;;;;;;;5.34;53.08;99775.05;681915;1266;138606;-81
2023/03/12 18:09:59;;;;;;;82.40;30.30;;;;;;;5.50;53.34;99766.70;682068;1262;137821;-81
2023/03/12 18:25:05;;;;;;;52.70;22.90;;;;;;;5.41;53.62;99767.89;682311;1264;137810;-82
2023/03/12 18:40:09;;;;;;;123.30;37.70;;;;;;;5.39;54.00;99776.52;682064;1265;137566;-80
2023/03/12 18:55:15;;;;;;;132.80;48.50;;;;;;;5.26;54.33;99799.16;682077;1262;137767;-80
2023/03/12 19:10:19;;;;;;;101.80;39.40;;;;;;;5.27;54.38;99827.05;682009;1265;138986;-82
2023/03/12 19:25:22;;;;;;;78.40;30.90;;;;;;;5.22;54.24;99831.55;682065;1264;138840;-80
2023/03/12 19:40:26;;;;;;;111.50;36.00;;;;;;;5.29;55.25;99838.80;681852;1261;138444;-80
2023/03/12 19:55:30;;;;;;;28.50;12.80;;;;;;;5.25;55.42;99845.91;681999;1272;138455;-80
2023/03/12 20:10:34;;;;;;;35.40;15.40;;;;;;;5.02;56.32;99839.21;681860;1266;138117;-80
2023/03/12 20:25:39;;;;;;;46.10;18.50;;;;;;;4.91;56.81;99812.09;682052;1263;139037;-80
2023/03/12 20:40:46;;;;;;;31.70;12.90;;;;;;;5.02;57.48;99793.64;681825;1264;138932;-80
2023/03/12 20:55:49;;;;;;;33.40;15.20;;;;;;;5.04;57.60;99793.18;681729;1270;138739;-80
2023/03/12 21:10:53;;;;;;;32.50;14.90;;;;;;;5.06;58.10;99808.79;681897;1263;138697;-80
2023/03/12 21:26:01;;;;;;;36.00;14.20;;;;;;;5.15;58.32;99800.54;682196;1264;139142;-80
2023/03/12 21:41:10;;;;;;;29.10;11.70;;;;;;;5.09;58.79;99778.39;681903;1273;138990;-81
2023/03/12 21:56:14;;;;;;;32.30;13.40;;;;;;;5.02;59.59;99751.72;682041;1264;139058;-81
2023/03/12 22:11:18;;;;;;;23.10;10.90;;;;;;;5.03;60.10;99729.10;682029;1263;138426;-81
2023/03/12 22:26:24;;;;;;;22.10;10.20;;;;;;;4.99;60.36;99709.47;682101;1264;138731;-82
2023/03/12 22:41:28;;;;;;;17.20;8.70;;;;;;;4.82;61.22;99690.60;681827;1266;138900;-81
2023/03/12 22:56:31;;;;;;;33.80;11.90;;;;;;;4.90;60.80;99694.67;681898;1260;138652;-81
2023/03/12 23:11:34;;;;;;;24.20;9.60;;;;;;;4.94;61.11;99686.57;681795;1264;139019;-83
2023/03/12 23:26:38;;;;;;;24.80;9.10;;;;;;;4.70;61.55;99683.71;682035;1264;138473;-83
2023/03/12 23:41:41;;;;;;;18.70;9.50;;;;;;;4.77;63.05;99679.36;681879;1267;138204;-81
2023/03/12 23:56:44;;;;;;;20.60;8.20;;;;;;;4.75;62.68;99674.11;682009;1263;138855;-82
